Aérodrome :
LOGIN :

S'inscrire | Disclaimer

   EN    FR    IT 

 










Légende :    VFR   VFR Marginal   IFR   IFR Intensif   IFR Très Intensif
Visi : 
Plafond : 
>= 8 km
>= 3000ft
5 à 8 km
1000 à 3000 ft
1500m à 5 km
500 à 1000 ft
800 à 1500m
200 à 500 ft
< 800m
< 200 ft
Symboles :   Orages  Brouillard  Fortes neiges  Fortes précipitations  Vent > 20 kt
SIGMETs :   Divers  Orages  Givrage  Turbulence  Onde Orograph.  Cendres Volcan.







- Altitude de l'aérodrome : 147 ft
- Code IATA : DUS


EDDL - Düsseldorf Int.

DERNIER METAR :
  • 180050Z 16013KT 1600 SN SCT004 BKN005 00/M00 Q1018 TEMPO 1400

METARs EXPIRÉS :
  • 180020Z 17013KT 2500 SN SCT004 BKN005 01/00 Q1018 TEMPO 1400
  • 172350Z 17014KT 4000 SNRA BKN005 01/00 Q1019 TEMPO 2000
  • 172320Z 18012KT 4500 -RASN FEW006 SCT012 BKN120 01/01 Q1020 BECMG 2000 SNRA BKN006
  • 172250Z 20015KT 6000 -RASN FEW006 SCT012 BKN120 02/00 Q1020 BECMG 2000 SNRA BKN006
  • 172220Z 19011KT 9999 -RASN BKN040 03/M00 Q1021 NOSIG

TAF TAF EDDL
Valide du 18 à 00h jusqu'au 19 à 06h UTC


172300Z 1800/1906 17012KT 6000 SCT012 BKN020
BECMG 1800/1803 4000 BR BKN009
TEMPO 1800/1804 2500 SNRA BKN004
TEMPO 1804/1808 RADZ OVC002
BECMG 1806/1810 VRB03KT
BECMG 1813/1817 9999 SCT009 BKN015
TEMPO 1817/1906 BKN007
TEMPO 1821/1906 33005KT
Pas de NOTAMs connus pour ce terrain.
2 SIGMETs publiés pour la FIR Langen (EDGG) :
 
Givrage fort
EDGG SIGMET 2 VALID 180000/180300 EDZF
EDGG LANGEN FIR SEV ICE FCST NW OF LINE N4915 E00730 - N5120 E00850 1000FT/FL130 MOV SE NC=
Orages noyés dans la masse
EDGG SIGMET 1 VALID 172335/180100 EDZF
EDGG LANGEN FIR EMBD TS OBS N OF N5130 AND W OF E00800 TOP FL200 MOV SE WKN=



MET'MAP, la Météo Aéronautique d'un coup d'oeil ! - Copyright ORBIFLY Décembre 2007 - Disclaimer

ORBIFLY MET'MAP TEAM :

Programmation & Développement : Alexandra Zaïnal
Conception & Développement : Baudouin d'Aumeries
Co-Programmation & Développement : Marc-Olivier Méhu
Soutien technique & logistique : Manuel Goepfert

Contact : metmap@orbifly.com




SOURCES & CREDITS :

   NOAA